createdAt,value
2023-03-19T06:09:41.211Z,146.25
2023-03-19T06:10:41.621Z,151.88
2023-03-19T06:11:41.262Z,151.88
2023-03-19T06:12:41.336Z,157.50
2023-03-19T06:13:41.711Z,157.50
2023-03-19T06:14:41.746Z,151.88
2023-03-19T06:15:41.764Z,151.88
2023-03-19T06:16:41.514Z,151.88
2023-03-19T06:17:41.553Z,157.50
2023-03-19T06:18:41.603Z,157.50
2023-03-19T06:19:41.611Z,168.75
2023-03-19T06:20:41.668Z,174.38
2023-03-19T06:21:41.764Z,180.00
2023-03-19T06:22:41.956Z,185.63
2023-03-19T06:23:41.793Z,191.25
2023-03-19T06:24:41.847Z,196.88
2023-03-19T06:25:41.883Z,208.13
2023-03-19T06:26:41.968Z,219.38
2023-03-19T06:27:41.968Z,230.63
2023-03-19T06:28:42.029Z,241.88
2023-03-19T06:29:42.064Z,258.75
2023-03-19T06:30:42.124Z,264.38
2023-03-19T07:10:24.037Z,596.25
2023-03-19T07:11:24.057Z,585.00
2023-03-19T10:14:38.624Z,2621.25
2023-03-19T10:15:37.884Z,2036.25
2023-03-19T10:16:38.131Z,1659.38
2023-03-19T10:17:35.287Z,1940.63
2023-03-19T10:18:37.728Z,2413.13
2023-03-19T10:19:40.006Z,1805.63
2023-03-19T10:20:38.772Z,1968.75
2023-03-19T10:21:37.827Z,2480.63
2023-03-19T10:22:38.626Z,2013.75
2023-03-19T10:23:38.077Z,2334.38
2023-03-19T10:24:37.851Z,2947.50
2023-03-19T10:25:41.086Z,2750.63
2023-03-19T10:26:37.900Z,2958.75
2023-03-19T10:27:38.023Z,3003.75
2023-03-19T10:28:37.938Z,2863.13
2023-03-19T10:29:38.583Z,2733.75
2023-03-19T10:30:38.053Z,3234.38
2023-03-19T10:31:38.599Z,3622.50
2023-03-19T10:32:38.642Z,3701.25
2023-03-19T10:33:38.577Z,3751.88
2023-03-19T10:34:39.087Z,3746.25
2023-03-19T10:35:38.224Z,3622.50
2023-03-19T10:36:38.088Z,2857.50
2023-03-19T10:37:39.080Z,2694.38
2023-03-19T10:38:39.095Z,2531.25
2023-03-19T10:39:39.626Z,3009.38
2023-03-19T10:40:39.093Z,2722.50
2023-03-19T10:41:50.038Z,2801.25
2023-03-19T10:42:51.134Z,2323.13
